createdAt,value
2018-11-07T00:00:13.650Z,15.23
2018-11-07T00:02:42.151Z,15.15
2018-11-07T00:05:10.562Z,14.15
2018-11-07T00:07:38.947Z,14.53
2018-11-07T00:10:07.918Z,14.47
2018-11-07T00:12:36.246Z,15.23
2018-11-07T00:15:04.773Z,13.93
2018-11-07T00:17:33.112Z,14.75
2018-11-07T00:20:01.786Z,14.90
2018-11-07T00:22:30.120Z,13.90
2018-11-07T00:24:58.435Z,14.33
2018-11-07T00:27:27.052Z,13.85
2018-11-07T00:29:55.371Z,14.47
2018-11-07T00:32:23.681Z,15.03
2018-11-07T00:34:52.079Z,13.10
2018-11-07T00:37:20.317Z,13.75
2018-11-07T00:39:49.121Z,14.38
2018-11-07T00:42:17.489Z,14.40
2018-11-07T00:44:45.784Z,12.60
2018-11-07T00:47:14.103Z,13.27
2018-11-07T00:49:42.421Z,13.43
2018-11-07T00:52:10.849Z,13.60
2018-11-07T00:54:39.344Z,13.20
2018-11-07T00:57:08.286Z,12.90
2018-11-07T00:59:36.676Z,12.47
2018-11-07T01:02:05.165Z,14.60
2018-11-07T01:04:33.553Z,14.10
2018-11-07T01:07:01.868Z,13.17
2018-11-07T01:09:30.221Z,13.03
2018-11-07T01:11:58.914Z,13.80
2018-11-07T01:14:27.217Z,15.33
2018-11-07T01:16:55.536Z,14.20
2018-11-07T01:19:23.855Z,14.67
2018-11-07T01:21:52.211Z,15.33
2018-11-07T01:24:20.516Z,14.15
2018-11-07T01:26:48.865Z,13.77
2018-11-07T01:29:17.162Z,13.57
2018-11-07T01:31:45.476Z,13.33
2018-11-07T01:34:13.881Z,14.40
2018-11-07T01:36:42.857Z,13.90
2018-11-07T01:39:11.505Z,13.40
2018-11-07T01:41:40.108Z,13.00
2018-11-07T01:44:09.053Z,13.67
2018-11-07T01:46:37.393Z,12.97
2018-11-07T01:49:05.872Z,13.87
2018-11-07T01:51:34.228Z,13.08
2018-11-07T01:54:02.562Z,12.33
2018-11-07T01:56:30.909Z,13.22
2018-11-07T01:58:59.269Z,12.40
2018-11-07T02:01:27.593Z,12.37
2018-11-07T02:03:55.951Z,11.90
2018-11-07T02:06:24.347Z,11.47
2018-11-07T02:08:52.764Z,12.43
2018-11-07T02:11:21.082Z,11.60
2018-11-07T02:13:49.436Z,12.73
2018-11-07T02:16:17.742Z,12.07
2018-11-07T02:18:46.079Z,11.13
2018-11-07T02:21:14.944Z,11.33
2018-11-07T02:23:43.949Z,11.90
2018-11-07T02:26:12.339Z,11.78
2018-11-07T02:28:40.616Z,12.13
2018-11-07T02:31:08.929Z,11.88
2018-11-07T02:33:37.646Z,11.17
2018-11-07T02:36:05.969Z,13.27
2018-11-07T02:38:34.345Z,10.60
2018-11-07T02:41:02.830Z,12.40
2018-11-07T02:43:31.894Z,12.63
2018-11-07T02:46:00.225Z,10.80
2018-11-07T02:48:28.536Z,10.75
2018-11-07T02:50:56.853Z,11.60
2018-11-07T02:53:25.212Z,11.57
2018-11-07T02:55:53.512Z,10.70
2018-11-07T02:58:21.834Z,11.05
2018-11-07T03:00:50.177Z,11.25
2018-11-07T03:03:18.504Z,10.90
2018-11-07T03:05:46.825Z,10.13
2018-11-07T03:08:15.154Z,11.08
2018-11-07T03:10:44.310Z,10.25
2018-11-07T03:13:13.243Z,9.38
2018-11-07T03:15:41.571Z,9.80
2018-11-07T03:18:09.894Z,9.90
2018-11-07T03:20:39.240Z,10.03
2018-11-07T03:23:07.561Z,10.07
2018-11-07T03:25:36.234Z,9.20
2018-11-07T03:28:04.649Z,8.33
2018-11-07T03:30:32.956Z,9.10
2018-11-07T03:33:01.279Z,7.50
2018-11-07T03:35:29.604Z,7.95
2018-11-07T03:37:57.923Z,7.80
2018-11-07T03:40:26.720Z,7.50
2018-11-07T03:42:55.072Z,7.58
2018-11-07T03:46:25.865Z,6.30
2018-11-07T03:48:54.177Z,7.17
2018-11-07T03:51:22.525Z,8.05
2018-11-07T03:53:50.854Z,6.47
2018-11-07T03:56:19.157Z,8.30
2018-11-07T03:58:47.489Z,8.43
2018-11-07T04:01:16.596Z,9.80
2018-11-07T04:03:45.606Z,10.82
2018-11-07T04:06:13.919Z,9.35
2018-11-07T04:08:42.253Z,9.33
2018-11-07T04:11:10.601Z,9.85
2018-11-07T04:13:38.934Z,9.20
2018-11-07T04:16:07.294Z,9.23
2018-11-07T04:18:35.588Z,9.45
2018-11-07T04:21:03.941Z,10.38
2018-11-07T04:23:32.270Z,9.38
2018-11-07T04:26:00.571Z,11.10
2018-11-07T04:28:28.973Z,9.65
2018-11-07T04:30:57.313Z,9.70
2018-11-07T04:33:26.314Z,9.05
2018-11-07T04:35:54.638Z,9.88
2018-11-07T04:38:22.997Z,9.28
2018-11-07T04:40:51.312Z,10.10
2018-11-07T04:43:19.616Z,9.55
2018-11-07T04:45:47.931Z,11.30
2018-11-07T04:48:16.264Z,10.70
2018-11-07T04:50:44.564Z,10.48
2018-11-07T04:53:13.073Z,10.58
2018-11-07T04:55:41.368Z,10.43
2018-11-07T04:58:09.667Z,11.75
2018-11-07T05:00:38.978Z,10.08
2018-11-07T05:03:07.285Z,11.12
2018-11-07T05:05:35.657Z,11.57
2018-11-07T05:08:04.030Z,10.40
2018-11-07T05:10:32.324Z,11.33
2018-11-07T05:13:00.690Z,12.40
2018-11-07T05:15:28.988Z,10.35
2018-11-07T05:17:57.330Z,9.90
2018-11-07T05:20:25.641Z,10.90
2018-11-07T05:22:54.505Z,10.50
2018-11-07T05:25:22.832Z,10.68
2018-11-07T05:27:51.151Z,10.65
2018-11-07T05:30:19.485Z,10.68
2018-11-07T05:32:47.812Z,12.35
2018-11-07T05:35:16.132Z,11.80
2018-11-07T05:37:45.400Z,12.15
2018-11-07T05:40:13.712Z,11.73
2018-11-07T05:42:42.039Z,10.20
2018-11-07T05:45:10.349Z,9.30
2018-11-07T05:47:38.868Z,10.03
2018-11-07T05:50:07.897Z,10.48
2018-11-07T05:52:36.281Z,9.08
2018-11-07T05:55:05.185Z,8.90
2018-11-07T05:57:33.506Z,9.55
2018-11-07T06:00:02.145Z,9.35
2018-11-07T06:02:30.465Z,9.70
2018-11-07T06:04:58.774Z,8.50
2018-11-07T06:07:27.100Z,9.90
2018-11-07T06:09:55.384Z,9.03
2018-11-07T06:12:23.688Z,9.05
2018-11-07T06:14:52.048Z,9.60
2018-11-07T06:17:20.373Z,9.45
2018-11-07T06:19:49.104Z,9.48
2018-11-07T06:22:17.442Z,9.30
2018-11-07T06:24:45.797Z,9.28
2018-11-07T06:27:14.143Z,8.10
2018-11-07T06:29:42.464Z,9.05
2018-11-07T06:32:10.957Z,9.43
2018-11-07T06:34:39.308Z,9.68
2018-11-07T06:37:07.621Z,8.73
2018-11-07T06:39:35.915Z,9.85
2018-11-07T06:42:04.400Z,7.67
2018-11-07T06:44:32.760Z,8.48
2018-11-07T06:47:01.025Z,8.03
2018-11-07T06:49:29.329Z,9.13
2018-11-07T06:51:57.673Z,8.35
2018-11-07T06:54:26.008Z,8.20
2018-11-07T06:56:56.254Z,9.13
2018-11-07T06:59:24.628Z,7.62
2018-11-07T07:01:52.943Z,7.42
2018-11-07T07:04:21.265Z,8.40
2018-11-07T07:06:49.606Z,7.45
2018-11-07T07:09:17.904Z,8.00
2018-11-07T07:11:46.195Z,8.00
2018-11-07T07:14:14.510Z,7.53
2018-11-07T07:16:42.869Z,8.63
2018-11-07T07:19:11.173Z,7.65
2018-11-07T07:21:39.585Z,6.83
2018-11-07T07:24:07.883Z,7.22
2018-11-07T07:26:36.178Z,7.37
2018-11-07T07:29:05.049Z,7.65
2018-11-07T07:31:33.360Z,7.67
2018-11-07T07:34:01.665Z,7.80
2018-11-07T07:36:29.974Z,7.60
2018-11-07T07:38:58.282Z,7.05
2018-11-07T07:41:26.602Z,7.53
2018-11-07T07:43:54.904Z,6.83
2018-11-07T07:46:23.726Z,7.33
2018-11-07T07:48:52.048Z,7.37
2018-11-07T07:51:20.356Z,6.53
2018-11-07T07:53:48.705Z,6.33
2018-11-07T07:56:17.030Z,6.30
2018-11-07T07:58:45.326Z,6.45
2018-11-07T08:01:13.653Z,6.75
2018-11-07T08:03:41.967Z,7.05
2018-11-07T08:06:10.295Z,7.95
2018-11-07T08:08:38.617Z,7.22
2018-11-07T08:11:06.924Z,5.83
2018-11-07T08:13:35.307Z,6.70
2018-11-07T08:16:03.554Z,6.50
2018-11-07T08:18:32.361Z,6.35
2018-11-07T08:21:00.722Z,6.28
2018-11-07T08:23:29.034Z,5.40
2018-11-07T08:25:58.006Z,5.97
2018-11-07T08:28:26.972Z,5.12
2018-11-07T08:30:55.393Z,5.83
2018-11-07T08:33:23.620Z,5.87
2018-11-07T08:35:51.941Z,6.17
2018-11-07T08:38:20.259Z,5.87
2018-11-07T08:40:48.578Z,5.70
2018-11-07T08:43:16.890Z,4.27
2018-11-07T08:45:45.210Z,4.43
2018-11-07T08:48:13.637Z,5.17
2018-11-07T08:50:42.834Z,5.07
2018-11-07T08:53:11.152Z,4.50
2018-11-07T08:55:39.440Z,4.30
2018-11-07T08:58:07.759Z,4.27
2018-11-07T09:00:36.056Z,4.00
2018-11-07T09:03:04.401Z,4.80
2018-11-07T09:05:32.702Z,4.20
2018-11-07T09:08:01.027Z,4.47
2018-11-07T09:10:29.313Z,4.90
2018-11-07T09:12:58.600Z,5.20
2018-11-07T09:15:26.909Z,4.37
2018-11-07T09:17:55.260Z,3.10
2018-11-07T09:20:24.786Z,3.17
2018-11-07T09:22:53.082Z,3.07
2018-11-07T09:25:21.389Z,3.20
2018-11-07T09:27:49.737Z,4.33
2018-11-07T09:30:19.901Z,3.23
2018-11-07T09:32:48.244Z,3.77
2018-11-07T09:35:16.589Z,3.10
2018-11-07T09:37:44.926Z,3.00
2018-11-07T09:40:14.491Z,2.77
2018-11-07T09:42:43.375Z,3.07
2018-11-07T09:45:13.168Z,3.53
2018-11-07T09:47:42.189Z,3.60
2018-11-07T09:50:11.173Z,3.23
2018-11-07T09:52:39.927Z,2.90
2018-11-07T09:55:10.802Z,3.10
2018-11-07T09:57:39.398Z,2.53
2018-11-07T10:00:09.606Z,2.27
2018-11-07T10:02:38.101Z,2.30
2018-11-07T10:05:07.222Z,2.13
2018-11-07T10:07:35.548Z,2.23
2018-11-07T10:10:04.287Z,2.90
2018-11-07T10:12:32.639Z,1.87
2018-11-07T10:15:00.948Z,2.13
2018-11-07T10:17:29.253Z,2.53
2018-11-07T10:19:57.553Z,2.10
2018-11-07T10:22:26.005Z,2.57
2018-11-07T10:24:54.306Z,2.30
2018-11-07T10:27:22.949Z,2.13
2018-11-07T10:29:51.432Z,2.33
2018-11-07T10:32:19.472Z,2.30
2018-11-07T10:34:47.761Z,2.30
2018-11-07T10:37:16.090Z,2.50
2018-11-07T10:39:44.416Z,2.73
2018-11-07T10:42:12.738Z,2.10
2018-11-07T10:44:41.040Z,1.60
2018-11-07T10:47:09.353Z,1.90
2018-11-07T10:49:37.697Z,1.80
2018-11-07T10:52:06.168Z,1.63
2018-11-07T10:54:34.465Z,2.00
2018-11-07T10:57:02.757Z,1.47
2018-11-07T10:59:31.080Z,2.07
2018-11-07T11:02:03.893Z,1.37
2018-11-07T11:04:32.261Z,1.20
2018-11-07T11:07:01.015Z,1.43
2018-11-07T11:09:29.325Z,1.30
2018-11-07T11:11:57.620Z,1.20
2018-11-07T11:14:25.963Z,1.67
2018-11-07T11:16:54.372Z,2.10
2018-11-07T11:19:22.602Z,1.63
2018-11-07T11:21:50.940Z,1.30
2018-11-07T11:24:19.269Z,1.37
2018-11-07T11:26:47.559Z,1.60
2018-11-07T11:29:15.873Z,2.00
2018-11-07T11:31:44.225Z,1.20
2018-11-07T11:34:12.699Z,0.70
2018-11-07T11:36:40.819Z,0.97
2018-11-07T11:39:10.601Z,0.80
2018-11-07T11:41:38.938Z,0.70
2018-11-07T11:44:07.524Z,1.30
2018-11-07T11:46:35.832Z,0.87
2018-11-07T11:49:04.507Z,1.00
2018-11-07T11:51:33.092Z,0.87
2018-11-07T11:54:01.477Z,1.70
2018-11-07T11:56:29.797Z,0.90
2018-11-07T11:58:58.646Z,1.30
2018-11-07T12:01:26.896Z,0.70
2018-11-07T12:03:55.265Z,1.10
2018-11-07T12:06:23.608Z,0.97
2018-11-07T12:08:51.937Z,1.33
2018-11-07T12:11:20.226Z,1.10
2018-11-07T12:13:48.605Z,3.20
2018-11-07T12:16:16.910Z,1.27
2018-11-07T12:18:45.231Z,1.63
2018-11-07T12:21:13.609Z,1.40
2018-11-07T12:23:41.918Z,1.70
2018-11-07T12:26:10.224Z,1.63
2018-11-07T12:28:38.534Z,1.43
2018-11-07T12:31:06.829Z,1.63
2018-11-07T12:33:35.202Z,1.23
2018-11-07T12:36:03.504Z,0.80
2018-11-07T12:38:32.036Z,1.00
2018-11-07T12:41:00.425Z,1.37
2018-11-07T12:43:28.825Z,1.30
2018-11-07T12:45:57.138Z,1.20
2018-11-07T12:48:25.508Z,1.03
2018-11-07T12:50:53.824Z,1.10
2018-11-07T12:53:22.294Z,1.20
2018-11-07T12:55:50.592Z,1.60
2018-11-07T12:58:19.138Z,1.00
2018-11-07T13:00:47.229Z,1.20
2018-11-07T13:03:15.540Z,1.37
2018-11-07T13:05:43.847Z,1.27
2018-11-07T13:08:12.830Z,1.20
2018-11-07T13:10:41.200Z,1.00
2018-11-07T13:13:09.510Z,0.70
2018-11-07T13:15:37.820Z,1.00
2018-11-07T13:18:06.340Z,1.07
2018-11-07T13:20:34.694Z,1.10
2018-11-07T13:23:03.017Z,1.27
2018-11-07T13:25:31.305Z,0.90
2018-11-07T13:27:59.997Z,1.13
2018-11-07T13:30:28.258Z,0.70
2018-11-07T13:32:56.564Z,0.93
2018-11-07T13:35:25.016Z,0.93
2018-11-07T13:37:53.916Z,0.80
2018-11-07T13:40:23.289Z,0.80
2018-11-07T13:42:51.633Z,0.90
2018-11-07T13:45:20.994Z,1.00
2018-11-07T13:47:50.505Z,1.30
2018-11-07T13:50:19.836Z,0.90
2018-11-07T13:52:48.229Z,0.83
2018-11-07T13:55:16.538Z,0.93
2018-11-07T13:57:45.166Z,1.10
2018-11-07T14:00:15.456Z,1.43
2018-11-07T14:02:44.105Z,1.00
2018-11-07T14:05:12.785Z,1.60
2018-11-07T14:07:41.052Z,1.83
2018-11-07T14:10:12.928Z,1.40
2018-11-07T14:12:41.590Z,1.13
2018-11-07T14:15:11.860Z,1.93
2018-11-07T14:17:40.209Z,1.40
2018-11-07T14:20:08.658Z,1.43
2018-11-07T14:22:37.088Z,1.10
2018-11-07T14:25:06.180Z,0.70
2018-11-07T14:27:34.602Z,1.50
2018-11-07T14:30:03.397Z,1.10
2018-11-07T14:32:31.988Z,1.20
2018-11-07T14:35:00.285Z,1.30
2018-11-07T14:37:28.598Z,1.43
2018-11-07T14:39:56.901Z,2.10
2018-11-07T14:42:25.280Z,1.67
2018-11-07T14:44:53.582Z,1.97
2018-11-07T14:47:21.983Z,1.87
2018-11-07T14:49:50.569Z,2.30
2018-11-07T14:52:18.885Z,2.17
2018-11-07T14:54:47.233Z,1.63
2018-11-07T14:57:15.564Z,2.63
2018-11-07T14:59:44.484Z,1.83
2018-11-07T15:02:12.825Z,2.10
2018-11-07T15:04:41.129Z,1.90
2018-11-07T15:07:09.464Z,2.27
2018-11-07T15:09:37.792Z,1.80
2018-11-07T15:12:06.227Z,2.10
2018-11-07T15:14:34.525Z,1.57
2018-11-07T15:17:02.870Z,1.70
2018-11-07T15:19:31.179Z,1.53
2018-11-07T15:22:00.215Z,1.13
2018-11-07T15:24:29.529Z,1.57
2018-11-07T15:26:57.849Z,1.00
2018-11-07T15:29:26.178Z,1.30
2018-11-07T15:31:54.545Z,1.33
2018-11-07T15:34:22.981Z,1.20
2018-11-07T15:36:51.302Z,1.00
2018-11-07T15:39:19.651Z,3.93
2018-11-07T15:41:48.136Z,1.20
2018-11-07T15:44:16.604Z,1.80
2018-11-07T15:46:44.905Z,1.40
2018-11-07T15:49:13.285Z,2.23
2018-11-07T15:51:41.619Z,1.30
2018-11-07T15:54:09.961Z,1.30
2018-11-07T15:56:38.273Z,1.37
2018-11-07T15:59:06.598Z,1.40
2018-11-07T16:01:34.929Z,1.30
2018-11-07T16:04:03.386Z,1.40
2018-11-07T16:06:31.668Z,2.03
2018-11-07T16:09:00.222Z,1.97
2018-11-07T16:11:29.486Z,1.80
2018-11-07T16:13:57.791Z,1.40
2018-11-07T16:16:26.873Z,1.30
2018-11-07T16:18:55.166Z,1.67
2018-11-07T16:21:23.541Z,1.77
2018-11-07T16:23:52.150Z,2.03
2018-11-07T16:26:20.460Z,1.53
2018-11-07T16:28:48.879Z,2.33
2018-11-07T16:31:17.174Z,1.50
2018-11-07T16:33:46.393Z,1.60
2018-11-07T16:36:14.705Z,2.20
2018-11-07T16:38:43.093Z,2.17
2018-11-07T16:41:11.502Z,2.90
2018-11-07T16:43:40.003Z,1.70
2018-11-07T16:46:08.343Z,1.73
2018-11-07T16:48:37.068Z,1.33
2018-11-07T16:51:05.461Z,1.73
2018-11-07T16:53:33.829Z,2.57
2018-11-07T16:56:02.209Z,1.80
2018-11-07T16:58:30.578Z,2.60
2018-11-07T17:00:59.106Z,1.97
2018-11-07T17:03:27.389Z,1.60
2018-11-07T17:05:55.705Z,2.07
2018-11-07T17:08:24.025Z,2.10
2018-11-07T17:10:52.350Z,1.60
2018-11-07T17:13:20.685Z,1.50
2018-11-07T17:15:49.047Z,1.63
2018-11-07T17:18:17.330Z,2.20
2018-11-07T17:20:45.705Z,2.20
2018-11-07T17:23:18.529Z,1.40
2018-11-07T17:25:42.307Z,1.90
2018-11-07T17:28:10.605Z,1.20
2018-11-07T17:30:38.960Z,1.43
2018-11-07T17:33:07.269Z,1.10
2018-11-07T17:35:36.334Z,1.67
2018-11-07T17:38:04.714Z,0.93
2018-11-07T17:40:33.111Z,1.47
2018-11-07T17:43:01.482Z,1.30
2018-11-07T17:45:29.764Z,1.20
2018-11-07T17:47:58.222Z,0.90
2018-11-07T17:50:26.482Z,1.23
2018-11-07T17:52:54.769Z,1.30
2018-11-07T17:55:23.354Z,1.10
2018-11-07T17:57:51.716Z,1.20
2018-11-07T18:00:22.727Z,1.50
2018-11-07T18:02:51.106Z,1.40
2018-11-07T18:05:19.775Z,1.50
2018-11-07T18:07:48.123Z,1.30
2018-11-07T18:10:17.588Z,1.40
2018-11-07T18:12:46.279Z,1.80
2018-11-07T18:15:14.666Z,1.27
2018-11-07T18:17:42.999Z,2.00
2018-11-07T18:20:12.460Z,1.93
2018-11-07T18:22:40.791Z,1.90
2018-11-07T18:25:10.277Z,1.50
2018-11-07T18:27:38.892Z,1.07
2018-11-07T18:30:08.850Z,1.20
2018-11-07T18:32:37.764Z,1.00
2018-11-07T18:35:07.341Z,1.23
2018-11-07T18:37:35.650Z,1.20
2018-11-07T18:40:04.920Z,1.30
2018-11-07T18:42:33.270Z,1.50
2018-11-07T18:45:01.597Z,1.00
2018-11-07T18:47:29.917Z,1.10
2018-11-07T18:49:58.750Z,1.77
2018-11-07T18:52:27.073Z,1.87
2018-11-07T18:54:55.396Z,2.23
2018-11-07T18:57:23.723Z,1.47
2018-11-07T18:59:52.039Z,2.07
2018-11-07T19:02:20.382Z,1.00
2018-11-07T19:04:48.702Z,1.87
2018-11-07T19:07:17.028Z,1.50
2018-11-07T19:09:45.417Z,1.40
2018-11-07T19:12:13.797Z,1.87
2018-11-07T19:14:42.120Z,2.40
2018-11-07T19:17:10.436Z,4.37
2018-11-07T19:19:40.211Z,8.97
2018-11-07T19:22:08.595Z,3.70
2018-11-07T19:24:36.911Z,3.80
2018-11-07T19:27:05.748Z,2.23
2018-11-07T19:29:34.069Z,3.57
2018-11-07T19:32:02.463Z,2.90
2018-11-07T19:34:31.460Z,2.47
2018-11-07T19:36:59.710Z,2.30
2018-11-07T19:39:28.069Z,2.07
2018-11-07T19:41:56.400Z,2.00
2018-11-07T19:44:24.714Z,2.50
2018-11-07T19:46:53.063Z,2.40
2018-11-07T19:49:21.386Z,2.43
2018-11-07T19:51:49.689Z,2.97
2018-11-07T19:54:18.301Z,2.20
2018-11-07T19:56:46.689Z,2.40
2018-11-07T19:59:15.005Z,3.03
2018-11-07T20:01:43.844Z,3.70
2018-11-07T20:04:12.182Z,3.20
2018-11-07T20:06:40.598Z,4.30
2018-11-07T20:09:09.732Z,3.67
2018-11-07T20:11:38.811Z,4.57
2018-11-07T20:14:13.306Z,5.80
2018-11-07T20:16:41.735Z,3.30
2018-11-07T20:19:10.677Z,3.33
2018-11-07T20:21:39.027Z,3.40
2018-11-07T20:24:07.564Z,3.07
2018-11-07T20:26:35.929Z,2.33
2018-11-07T20:29:04.287Z,2.47
2018-11-07T20:31:33.070Z,2.30
2018-11-07T20:34:01.405Z,1.90
2018-11-07T20:36:29.723Z,1.93
2018-11-07T20:38:58.070Z,1.80
2018-11-07T20:41:27.033Z,2.30
2018-11-07T20:43:55.375Z,1.70
2018-11-07T20:46:24.928Z,1.47
2018-11-07T20:48:53.284Z,1.80
2018-11-07T20:51:21.562Z,2.10
2018-11-07T20:53:50.124Z,2.13
2018-11-07T20:56:18.426Z,1.50
2018-11-07T20:58:47.612Z,1.90
2018-11-07T21:01:15.941Z,1.83
2018-11-07T21:03:44.281Z,2.03
2018-11-07T21:06:12.636Z,2.07
2018-11-07T21:08:40.932Z,1.83
2018-11-07T21:11:09.422Z,2.30
2018-11-07T21:13:37.741Z,1.80
2018-11-07T21:16:06.277Z,2.43
2018-11-07T21:18:34.589Z,2.30
2018-11-07T21:21:02.937Z,1.80
2018-11-07T21:23:31.330Z,1.77
2018-11-07T21:25:59.640Z,2.73
2018-11-07T21:28:28.012Z,2.80
2018-11-07T21:30:56.348Z,3.10
2018-11-07T21:33:24.628Z,2.30
2018-11-07T21:35:52.936Z,2.60
2018-11-07T21:38:21.228Z,3.07
2018-11-07T21:40:49.567Z,2.60
2018-11-07T21:43:17.935Z,2.17
2018-11-07T21:45:46.274Z,2.90
2018-11-07T21:48:14.565Z,2.20
2018-11-07T21:50:42.949Z,1.73
2018-11-07T21:53:11.248Z,2.60
2018-11-07T21:55:39.709Z,2.43
2018-11-07T21:58:08.041Z,2.47
2018-11-07T22:00:36.461Z,2.10
2018-11-07T22:03:04.991Z,2.07
2018-11-07T22:05:33.708Z,2.20
2018-11-07T22:08:02.045Z,2.23
2018-11-07T22:10:30.372Z,2.20
2018-11-07T22:12:58.754Z,2.50
2018-11-07T22:15:27.067Z,2.57
2018-11-07T22:17:55.495Z,2.47
2018-11-07T22:20:23.804Z,2.40
2018-11-07T22:22:52.128Z,2.33
2018-11-07T22:25:20.434Z,2.73
2018-11-07T22:27:48.768Z,3.00
2018-11-07T22:30:17.825Z,3.30
2018-11-07T22:32:46.465Z,4.40
2018-11-07T22:35:15.956Z,2.53
2018-11-07T22:37:44.762Z,3.10
2018-11-07T22:40:14.856Z,2.63
2018-11-07T22:42:43.847Z,3.23
2018-11-07T22:45:12.856Z,3.10
2018-11-07T22:47:41.208Z,3.00
2018-11-07T22:50:11.766Z,2.70
2018-11-07T22:52:40.690Z,3.20
2018-11-07T22:55:09.155Z,2.87
2018-11-07T22:57:37.642Z,3.00
2018-11-07T23:00:21.999Z,3.63
2018-11-07T23:02:52.441Z,3.27
2018-11-07T23:05:20.862Z,2.93
2018-11-07T23:07:49.749Z,3.40
2018-11-07T23:10:18.091Z,3.33
2018-11-07T23:12:46.770Z,2.97
2018-11-07T23:15:20.322Z,2.60
2018-11-07T23:17:48.757Z,2.80
2018-11-07T23:20:17.074Z,2.80
2018-11-07T23:22:45.444Z,2.70
2018-11-07T23:25:13.738Z,1.80
2018-11-07T23:27:42.057Z,2.10
2018-11-07T23:30:10.378Z,2.53
2018-11-07T23:32:38.708Z,2.40
2018-11-07T23:35:07.174Z,2.73
2018-11-07T23:37:35.562Z,2.63
2018-11-07T23:40:04.158Z,3.07
2018-11-07T23:42:32.671Z,2.80
2018-11-07T23:45:01.005Z,2.80
2018-11-07T23:47:30.185Z,2.43
2018-11-07T23:49:58.700Z,2.30
2018-11-07T23:52:32.240Z,2.77
2018-11-07T23:55:00.576Z,2.10
2018-11-07T23:57:28.972Z,1.50
2018-11-07T23:59:57.237Z,2.03
